Global Triumph — V7DU5 — position and weather

sailwx.info

Track history (hours):
 
Tides and Currents Weather Stations Pressure Air Temp Water Temp Dewpoint Dewpoint Depression Visibility Wind Speed Wind Dir Waves Ship Positions

Global Triumph

Last reported at 2018-Mar-11 17:11 UTC. Time now 2018-Apr-22 14:42 UTC.
Position N 33°56' E 127°37'.
Warning: this ship's position is 41 days out of date.

Length 225 m; draft 6.9 m.

Type: Cargo ship. MMSI: 538001709.

Date/timePositionNaut miles runAvg speedWind from/ knotsBaromVisibWave heightAir tempDewpointWater temp
2018-Mar-11 17:11N 33°56' E 127°37'314.8
2018-Mar-11 17:00N 33°57' E 127°40'714.5
2018-Mar-11 16:30N 34°01' E 127°48'815.1
2018-Mar-11 16:00N 34°05' E 127°55'6115.4
2018-Mar-11 12:02N 34°45' E 128°51'415.5
2018-Mar-11 11:48N 34°49' E 128°52'414.8
2018-Mar-11 11:30N 34°53' E 128°51'814.9
2018-Mar-11 11:00N 34°60' E 128°48'5 7.7
2018-Mar-11 10:24N 35°04' E 128°49'  
2018-Mar-07 01:20N 23°56' E 119°29'  
Track history (hours):
 
Tides and Currents Weather Stations Pressure Air Temp Water Temp Dewpoint Dewpoint Depression Visibility Wind Speed Wind Dir Waves Ship Positions

Global Triumph

Last reported at 2018-Mar-11 17:11 UTC. Time now 2018-Apr-22 14:42 UTC.
Position N 33°56' E 127°37'.
Warning: this ship's position is 41 days out of date.

Length 225 m; draft 6.9 m.

Type: Cargo ship. MMSI: 538001709.

Date/timePositionNaut miles runAvg speedWind from/ knotsBaromVisibWave heightAir tempDewpointWater temp
2018-Mar-11 17:11N 33°56' E 127°37'314.8
2018-Mar-11 17:00N 33°57' E 127°40'714.5
2018-Mar-11 16:30N 34°01' E 127°48'815.1
2018-Mar-11 16:00N 34°05' E 127°55'6115.4
2018-Mar-11 12:02N 34°45' E 128°51'415.5
2018-Mar-11 11:48N 34°49' E 128°52'414.8
2018-Mar-11 11:30N 34°53' E 128°51'814.9
2018-Mar-11 11:00N 34°60' E 128°48'5 7.7
2018-Mar-11 10:24N 35°04' E 128°49'  
2018-Mar-07 01:20N 23°56' E 119°29'  

Dump ship's entire track history